Time;durP1;ratioP1;P1;durP2;ratioP2;P2;SDS_P1;SDS_P2;PMS_P1;PMS_P2;Temp;Humidity;BMP_temperature;BMP_pressure;BME280_temperature;BME280_humidity;BME280_pressure;Samples;Min_cycle;Max_cycle;Signal;HPM_P1;HPM_P2
2021/04/22 00:00:24;;;;;;;18.10;10.40;;;;;;;9.22;51.27;98754.31;114240;1193;64509;-83
2021/04/22 00:03:11;;;;;;;21.87;10.07;;;;;;;9.20;51.10;98750.92;114338;1193;64371;-86
2021/04/22 00:05:42;;;;;;;18.83;10.13;;;;;;;9.18;51.19;98744.86;114372;1193;64314;-83
2021/04/22 00:08:11;;;;;;;17.20;9.85;;;;;;;9.13;51.28;98746.99;114411;1193;64544;-84
2021/04/22 00:10:43;;;;;;;17.67;9.53;;;;;;;9.09;51.35;98751.67;114409;1193;64298;-85
2021/04/22 00:13:12;;;;;;;16.05;8.80;;;;;;;9.06;51.70;98757.23;114516;1193;64365;-85
2021/04/22 00:15:38;;;;;;;14.03;8.77;;;;;;;9.05;51.76;98763.52;114761;1193;64372;-84
2021/04/22 00:18:07;;;;;;;15.80;8.60;;;;;;;9.07;51.60;98768.73;114336;1193;64433;-90
2021/04/22 00:20:37;;;;;;;20.80;8.83;;;;;;;9.08;51.55;98757.97;114893;1193;64449;-84
2021/04/22 00:23:06;;;;;;;15.77;8.87;;;;;;;9.12;51.89;98758.61;114384;1192;64512;-84
2021/04/22 00:25:33;;;;;;;21.97;9.23;;;;;;;9.13;51.76;98766.48;114348;1193;64342;-85
2021/04/22 00:28:04;;;;;;;13.85;7.80;;;;;;;9.11;51.91;98768.42;114657;1193;64371;-86
2021/04/22 00:30:32;;;;;;;16.13;8.30;;;;;;;9.07;52.44;98768.73;114327;1193;64378;-86
2021/04/22 00:32:59;;;;;;;17.65;9.45;;;;;;;8.97;52.46;98762.34;114430;1193;64461;-85
2021/04/22 00:35:25;;;;;;;19.80;9.87;;;;;;;8.86;52.44;98771.95;114365;1193;64397;-86
2021/04/22 00:37:52;;;;;;;14.20;8.67;;;;;;;8.76;52.47;98765.55;114633;1193;64388;-87
2021/04/22 00:40:24;;;;;;;19.53;9.80;;;;;;;8.68;52.98;98778.55;114380;1193;64365;-89
2021/04/22 00:42:51;;;;;;;18.93;9.13;;;;;;;8.63;52.51;98770.02;114381;1193;64448;-88
2021/04/22 00:45:18;;;;;;;17.67;9.50;;;;;;;8.62;52.78;98769.16;114319;1193;64410;-85
2021/04/22 00:47:47;;;;;;;18.50;10.30;;;;;;;8.61;52.89;98772.78;114304;1193;64384;-83
2021/04/22 00:50:21;;;;;;;17.90;9.70;;;;;;;8.61;53.11;98775.45;114853;1193;64362;-85
2021/04/22 00:52:48;;;;;;;18.60;8.80;;;;;;;8.63;53.02;98781.51;114378;1193;64356;-84
2021/04/22 00:55:15;;;;;;;15.13;8.27;;;;;;;8.68;53.17;98783.02;114354;1193;64382;-85
2021/04/22 00:57:41;;;;;;;21.07;9.13;;;;;;;8.72;52.88;98784.52;114367;1193;64471;-86
2021/04/22 01:00:10;;;;;;;17.60;9.00;;;;;;;8.67;53.59;98784.83;114373;1193;64372;-83
2021/04/22 01:02:38;;;;;;;18.05;8.95;;;;;;;8.58;53.90;98785.44;114733;1193;64427;-86
2021/04/22 01:05:16;;;;;;;15.13;9.77;;;;;;;8.51;53.80;98797.46;114340;1193;64404;-85
2021/04/22 01:07:44;;;;;;;20.43;9.67;;;;;;;8.44;54.58;98807.67;114338;1193;64493;-83
2021/04/22 01:10:14;;;;;;;19.65;9.50;;;;;;;8.35;54.94;98808.27;114353;1193;64400;-86
2021/04/22 01:12:42;;;;;;;15.60;8.25;;;;;;;8.26;55.74;98820.35;114390;1193;64288;-83
2021/04/22 01:15:11;;;;;;;13.90;8.30;;;;;;;8.15;55.20;98817.58;114484;1193;64522;-83
2021/04/22 01:17:39;;;;;;;10.95;8.60;;;;;;;8.04;55.35;98820.08;114895;1193;64426;-86
2021/04/22 01:20:10;;;;;;;17.43;9.70;;;;;;;7.95;55.60;98825.98;114299;1193;64464;-85
2021/04/22 01:22:37;;;;;;;21.10;10.20;;;;;;;7.87;56.61;98821.16;114396;1193;64513;-85
2021/04/22 01:25:07;;;;;;;15.53;9.83;;;;;;;7.81;56.21;98827.73;114203;1193;64369;-86
2021/04/22 01:27:34;;;;;;;15.03;9.77;;;;;;;7.76;56.27;98821.00;114551;1193;64371;-88
2021/04/22 01:30:01;;;;;;;18.53;9.27;;;;;;;7.75;56.69;98829.93;114313;1193;64362;-85
2021/04/22 01:32:27;;;;;;;14.07;8.00;;;;;;;7.75;56.00;98819.30;114508;1193;64800;-86
2021/04/22 01:34:54;;;;;;;15.45;8.80;;;;;;;7.74;56.00;98822.91;114344;1193;64525;-85
2021/04/22 01:37:20;;;;;;;13.83;8.80;;;;;;;7.75;56.39;98824.61;114323;1193;64285;-82
2021/04/22 01:39:47;;;;;;;17.73;8.93;;;;;;;7.75;56.97;98820.15;114491;1193;64334;-85
2021/04/22 01:42:13;;;;;;;15.97;8.10;;;;;;;7.75;56.77;98828.13;114637;1193;64362;-83
2021/04/22 01:44:40;;;;;;;13.63;8.63;;;;;;;7.78;56.56;98830.59;114401;1193;64525;-84
2021/04/22 01:47:06;;;;;;;15.60;7.85;;;;;;;7.78;57.18;98827.94;114248;1193;64500;-88
2021/04/22 01:49:33;;;;;;;12.83;7.80;;;;;;;7.77;56.61;98838.68;114236;1193;64429;-84
2021/04/22 01:51:59;;;;;;;13.50;7.35;;;;;;;7.74;56.67;98836.20;114724;1193;64356;-84
2021/04/22 01:54:26;;;;;;;13.57;7.47;;;;;;;7.69;57.45;98833.83;114352;1193;62687;-83
2021/04/22 01:56:52;;;;;;;16.97;6.97;;;;;;;7.64;57.08;98822.66;114347;1193;64394;-88
2021/04/22 01:59:19;;;;;;;11.97;6.90;;;;;;;7.57;57.07;98834.61;114468;1193;64513;-84
2021/04/22 02:01:46;;;;;;;16.07;7.03;;;;;;;7.49;57.73;98834.24;114327;1193;64298;-83
2021/04/22 02:04:13;;;;;;;18.37;6.87;;;;;;;7.42;57.46;98832.92;114633;1193;64356;-86
2021/04/22 02:06:40;;;;;;;10.50;4.97;;;;;;;7.39;57.56;98838.45;114331;1193;64291;-81
2021/04/22 02:09:07;;;;;;;19.20;5.43;;;;;;;7.37;56.94;98824.38;114322;1193;64337;-86
2021/04/22 02:11:33;;;;;;;9.63;4.90;;;;;;;7.34;58.28;98833.41;114284;1193;64452;-83
2021/04/22 02:14:00;;;;;;;9.37;4.10;;;;;;;7.33;57.31;98838.83;114565;1193;64411;-82
2021/04/22 02:16:27;;;;;;;10.07;4.07;;;;;;;7.29;57.12;98840.81;114312;1193;64349;-86
2021/04/22 02:18:53;;;;;;;7.27;3.63;;;;;;;7.26;57.40;98844.52;114486;1192;64331;-83
2021/04/22 02:21:20;;;;;;;12.00;3.67;;;;;;;7.23;57.50;98842.03;114321;1193;64346;-83
2021/04/22 02:23:47;;;;;;;12.53;3.40;;;;;;;7.22;56.78;98845.65;114672;1193;64308;-80
2021/04/22 02:26:13;;;;;;;7.70;2.95;;;;;;;7.19;57.63;98847.63;114370;1192;64407;-86
2021/04/22 02:28:39;;;;;;;12.03;3.70;;;;;;;7.17;56.48;98844.22;114348;1193;64465;-84
2021/04/22 02:31:06;;;;;;;8.80;3.40;;;;;;;7.13;57.48;98837.41;114338;1193;64315;-84
2021/04/22 02:33:33;;;;;;;10.50;3.50;;;;;;;7.08;56.55;98842.14;114282;1193;64301;-85
2021/04/22 02:36:00;;;;;;;7.45;2.95;;;;;;;7.00;56.62;98843.47;114374;1192;64525;-82
2021/04/22 02:38:27;;;;;;;11.27;2.97;;;;;;;6.94;56.29;98845.64;114369;1193;64419;-81
2021/04/22 02:40:54;;;;;;;9.13;3.20;;;;;;;6.90;56.02;98857.38;114311;1193;64362;-85
2021/04/22 02:43:21;;;;;;;7.30;2.90;;;;;;;6.82;55.51;98855.20;114603;1193;64288;-83
2021/04/22 02:45:51;;;;;;;11.75;2.90;;;;;;;6.75;56.10;98867.13;114755;1193;64374;-84
2021/04/22 02:48:18;;;;;;;5.85;2.25;;;;;;;6.70;55.69;98866.54;114385;1193;64345;-81
2021/04/22 02:50:48;;;;;;;13.63;2.73;;;;;;;6.63;55.94;98866.05;114544;1193;64374;-83
2021/04/22 02:53:15;;;;;;;12.30;2.90;;;;;;;6.57;55.40;98865.55;114703;1193;64429;-83
2021/04/22 02:55:44;;;;;;;13.10;3.03;;;;;;;6.53;55.57;98866.67;114378;1193;64401;-84
2021/04/22 02:58:12;;;;;;;10.80;3.45;;;;;;;6.47;55.57;98868.73;114514;1193;64362;-81
2021/04/22 03:00:40;;;;;;;10.10;3.10;;;;;;;6.38;55.91;98873.73;114157;1193;64506;-82
2021/04/22 03:03:09;;;;;;;16.60;3.93;;;;;;;6.30;55.72;98868.88;114198;1193;64301;-84
2021/04/22 03:05:37;;;;;;;13.97;3.00;;;;;;;6.22;55.79;98869.29;114353;1192;64488;-83
2021/04/22 03:08:05;;;;;;;8.10;2.20;;;;;;;6.15;55.72;98881.19;114363;1193;64375;-90
2021/04/22 03:10:34;;;;;;;6.40;2.30;;;;;;;6.12;55.65;98885.83;114419;1193;64304;-81
2021/04/22 03:13:02;;;;;;;14.23;2.60;;;;;;;6.08;55.80;98889.58;114429;1193;64471;-86
2021/04/22 03:15:29;;;;;;;12.67;2.93;;;;;;;6.05;55.56;98885.32;114422;1193;64375;-81
2021/04/22 03:17:56;;;;;;;5.60;2.63;;;;;;;6.04;55.97;98893.34;114475;1193;64496;-83
2021/04/22 03:20:23;;;;;;;12.80;3.13;;;;;;;5.98;56.15;98894.56;114525;1192;64474;-82
2021/04/22 03:22:50;;;;;;;8.80;2.60;;;;;;;5.94;55.96;98903.62;114488;1193;64502;-82
2021/04/22 03:25:21;;;;;;;14.73;3.23;;;;;;;5.90;56.50;98899.38;114732;1193;64408;-88
2021/04/22 03:27:47;;;;;;;7.30;2.80;;;;;;;5.86;55.57;98903.16;114552;1193;64371;-84
2021/04/22 03:30:17;;;;;;;9.27;2.90;;;;;;;5.82;56.52;98910.41;114313;1193;64353;-84
2021/04/22 03:32:44;;;;;;;10.97;2.70;;;;;;;5.79;56.41;98917.66;114389;1193;64500;-86
2021/04/22 03:35:13;;;;;;;9.30;2.77;;;;;;;5.77;55.70;98915.11;114284;1193;64385;-84
2021/04/22 03:37:41;;;;;;;8.90;2.47;;;;;;;5.70;56.02;98917.23;114380;1192;64474;-82
2021/04/22 03:40:10;;;;;;;9.77;3.20;;;;;;;5.61;55.70;98930.99;114224;1193;64432;-82
2021/04/22 03:42:37;;;;;;;11.45;2.10;;;;;;;5.56;55.71;98934.82;114425;1193;64419;-81
2021/04/22 03:45:06;;;;;;;11.60;2.50;;;;;;;5.47;55.70;98941.48;114490;1193;64410;-85
2021/04/22 03:47:33;;;;;;;21.70;3.20;;;;;;;5.39;55.39;98943.66;114416;1193;64427;-84
2021/04/22 03:49:59;;;;;;;11.05;2.50;;;;;;;5.31;55.44;98945.86;114373;1193;64365;-80
2021/04/22 03:52:26;;;;;;;13.20;2.43;;;;;;;5.24;55.32;98955.06;114490;1193;64480;-81
2021/04/22 03:54:55;;;;;;;11.17;2.47;;;;;;;5.17;55.97;98953.67;114351;1193;64513;-80
2021/04/22 03:57:22;;;;;;;9.13;2.67;;;;;;;5.09;55.03;98960.22;114349;1193;64438;-83
2021/04/22 03:59:48;;;;;;;5.83;2.00;;;;;;;5.03;55.77;98973.77;114340;1193;64372;-84
2021/04/22 04:02:15;;;;;;;12.50;2.87;;;;;;;4.96;55.67;98966.19;114402;1193;64462;-83
2021/04/22 04:04:41;;;;;;;11.47;2.57;;;;;;;4.89;55.51;98977.08;114727;1193;64834;-84
2021/04/22 04:07:08;;;;;;;18.40;2.93;;;;;;;4.84;55.57;98968.55;114117;1193;64327;-83
2021/04/22 04:09:35;;;;;;;12.87;2.57;;;;;;;4.82;55.78;98990.70;114346;1193;64426;-85
2021/04/22 04:12:01;;;;;;;10.80;2.13;;;;;;;4.78;55.70;98990.02;114335;1193;64301;-81
2021/04/22 04:14:28;;;;;;;8.30;2.30;;;;;;;4.77;55.50;99003.29;114531;1193;64340;-81
2021/04/22 04:16:54;;;;;;;8.17;2.23;;;;;;;4.74;55.74;98999.02;114316;1193;64487;-81
2021/04/22 04:19:21;;;;;;;9.33;2.67;;;;;;;4.69;55.60;99003.67;114320;1196;64305;-84
2021/04/22 04:21:47;;;;;;;14.33;2.67;;;;;;;4.67;55.95;99012.63;114234;1193;64359;-86
2021/04/22 04:24:14;;;;;;;12.63;3.07;;;;;;;4.61;55.90;99009.34;114896;1193;64350;-82
2021/04/22 04:26:40;;;;;;;8.57;2.90;;;;;;;4.57;55.88;99012.20;114295;1193;64378;-85
2021/04/22 04:29:07;;;;;;;13.77;3.20;;;;;;;4.54;55.60;99012.37;114357;1193;64474;-84
2021/04/22 04:31:34;;;;;;;12.80;3.43;;;;;;;4.51;56.30;99012.50;114302;1193;64355;-84
2021/04/22 04:34:05;;;;;;;9.40;2.90;;;;;;;4.47;55.89;99011.80;114331;1193;64433;-83
2021/04/22 04:36:32;;;;;;;16.03;3.30;;;;;;;4.46;55.65;99023.32;114325;1193;64696;-85
2021/04/22 04:38:58;;;;;;;10.73;3.10;;;;;;;4.47;56.15;99029.47;114527;1193;64410;-82
2021/04/22 04:41:25;;;;;;;14.37;3.67;;;;;;;4.48;56.07;99024.09;114891;1193;64372;-85
2021/04/22 04:43:53;;;;;;;19.10;3.53;;;;;;;4.50;56.17;99037.23;114430;1193;64359;-85
2021/04/22 04:46:20;;;;;;;10.00;3.53;;;;;;;4.51;56.13;99039.80;114334;1193;64327;-82
2021/04/22 04:48:47;;;;;;;11.33;2.87;;;;;;;4.57;55.93;99043.94;114381;1193;64324;-86
2021/04/22 04:51:14;;;;;;;10.65;2.80;;;;;;;4.61;55.97;99056.10;114350;1193;64465;-83
2021/04/22 04:53:41;;;;;;;16.75;3.50;;;;;;;4.65;55.69;99046.24;114509;1193;64432;-82
2021/04/22 04:56:08;;;;;;;11.15;3.50;;;;;;;4.65;56.19;99057.68;114688;1193;64458;-84
2021/04/22 04:58:35;;;;;;;15.90;3.67;;;;;;;4.65;56.60;99051.53;114321;1193;64493;-87
2021/04/22 05:01:02;;;;;;;17.80;4.20;;;;;;;4.65;56.28;99062.12;114652;1193;64301;-81
2021/04/22 05:03:29;;;;;;;11.83;3.43;;;;;;;4.67;56.07;99068.18;114339;1193;64545;-83
2021/04/22 05:05:55;;;;;;;21.20;4.00;;;;;;;4.64;56.38;99070.95;114298;1193;64381;-84
2021/04/22 05:08:22;;;;;;;18.07;4.20;;;;;;;4.59;56.42;99079.13;114288;1193;64493;-84
2021/04/22 05:10:49;;;;;;;18.80;3.90;;;;;;;4.55;56.36;99077.55;114300;1193;64314;-81
2021/04/22 05:13:15;;;;;;;12.57;3.50;;;;;;;4.47;56.38;99077.91;114709;1193;64432;-82
2021/04/22 05:15:42;;;;;;;10.70;4.03;;;;;;;4.44;56.08;99085.13;114233;1193;64462;-84
2021/04/22 05:18:09;;;;;;;11.15;3.30;;;;;;;4.40;56.89;99087.06;114373;1193;64478;-85
2021/04/22 05:20:36;;;;;;;14.70;3.10;;;;;;;4.36;56.65;99085.48;114347;1193;64359;-81
2021/04/22 05:23:02;;;;;;;17.70;3.60;;;;;;;4.30;56.37;99088.41;114313;1193;64446;-83
2021/04/22 05:25:29;;;;;;;22.97;3.30;;;;;;;4.24;56.09;99094.83;114392;1191;64366;-82
2021/04/22 05:27:56;;;;;;;16.90;3.30;;;;;;;4.35;56.10;99094.34;114724;1193;64502;-83
2021/04/22 05:30:23;;;;;;;17.00;3.93;;;;;;;4.63;55.46;99096.55;114714;1193;64269;-84
2021/04/22 05:32:49;;;;;;;17.67;3.30;;;;;;;4.87;55.22;99089.23;114459;1193;64416;-80
2021/04/22 05:35:17;;;;;;;15.65;3.10;;;;;;;5.05;55.00;99098.94;114449;1193;64509;-88
2021/04/22 05:37:43;;;;;;;13.37;3.70;;;;;;;5.04;54.84;99097.22;114649;1193;64433;-86
2021/04/22 05:40:10;;;;;;;12.35;3.10;;;;;;;5.04;55.04;99099.88;114312;1193;64410;-83
2021/04/22 05:42:37;;;;;;;13.63;3.30;;;;;;;5.01;54.84;99107.94;114371;1193;64407;-85
2021/04/22 05:45:05;;;;;;;17.83;3.50;;;;;;;5.26;54.81;99104.09;114295;1192;64435;-81
2021/04/22 05:47:32;;;;;;;11.30;3.80;;;;;;;5.43;54.05;99114.71;114319;1193;64352;-81
2021/04/22 05:49:58;;;;;;;21.33;4.63;;;;;;;5.50;53.91;99109.96;114355;1193;64742;-84
2021/04/22 05:52:25;;;;;;;12.75;3.35;;;;;;;5.40;54.31;99130.74;114321;1193;64433;-82
2021/04/22 05:54:51;;;;;;;13.73;3.23;;;;;;;5.49;53.41;99129.44;114326;1192;64356;-85
2021/04/22 05:57:18;;;;;;;16.10;4.15;;;;;;;5.69;53.70;99116.89;114340;1193;64369;-87
2021/04/22 05:59:44;;;;;;;15.40;4.43;;;;;;;5.85;53.38;99134.64;114297;1193;64404;-85
2021/04/22 06:02:11;;;;;;;19.80;4.15;;;;;;;6.11;53.19;99122.74;114302;1193;64411;-84
2021/04/22 06:04:37;;;;;;;13.85;3.75;;;;;;;6.42;52.85;99121.94;114321;1193;64518;-88
2021/04/22 06:07:04;;;;;;;12.67;3.40;;;;;;;6.47;53.07;99133.16;114312;1193;64384;-87
2021/04/22 06:09:31;;;;;;;14.10;3.17;;;;;;;6.43;53.32;99128.98;114284;1193;64457;-86
2021/04/22 06:11:57;;;;;;;18.00;4.53;;;;;;;6.36;53.39;99133.76;114183;1193;64387;-82
2021/04/22 06:14:24;;;;;;;19.00;4.00;;;;;;;6.35;53.01;99136.47;114364;1193;64398;-82
2021/04/22 06:16:50;;;;;;;11.97;3.80;;;;;;;6.27;53.08;99141.33;114376;1193;64561;-82
2021/04/22 06:19:17;;;;;;;13.13;3.80;;;;;;;6.26;53.37;99135.17;114422;1193;64396;-81
2021/04/22 06:21:43;;;;;;;14.10;4.40;;;;;;;6.14;53.08;99139.33;114292;1193;64433;-83
2021/04/22 06:24:10;;;;;;;18.80;4.35;;;;;;;6.29;53.43;99142.09;114300;1193;64256;-82
2021/04/22 06:26:36;;;;;;;15.10;4.17;;;;;;;6.48;53.47;99137.52;114473;1193;64238;-88
2021/04/22 06:29:04;;;;;;;15.30;3.33;;;;;;;6.86;52.62;99135.42;114347;1193;64545;-88
2021/04/22 06:31:31;;;;;;;17.43;3.87;;;;;;;7.07;51.22;99148.46;114454;1193;64407;-82
2021/04/22 06:33:58;;;;;;;13.40;3.80;;;;;;;7.05;51.69;99144.06;114181;1193;64359;-86
2021/04/22 06:36:25;;;;;;;19.10;3.93;;;;;;;7.14;52.02;99141.86;114338;1193;64298;-82
2021/04/22 06:38:52;;;;;;;15.57;3.60;;;;;;;7.43;51.44;99148.14;114342;1193;64455;-88
2021/04/22 06:41:20;;;;;;;10.17;4.13;;;;;;;7.44;53.10;99147.19;114319;1193;64395;-82
2021/04/22 06:43:46;;;;;;;14.25;4.05;;;;;;;7.63;52.29;99152.30;114525;1193;64353;-87
2021/04/22 06:46:14;;;;;;;15.70;4.10;;;;;;;7.48;50.85;99157.56;114272;1191;64388;-83
2021/04/22 06:48:41;;;;;;;13.37;3.87;;;;;;;7.67;52.13;99167.13;114410;1192;64359;-81
2021/04/22 06:51:08;;;;;;;9.97;3.20;;;;;;;7.74;51.65;99164.02;114173;1193;64304;-83
2021/04/22 06:53:36;;;;;;;13.60;3.63;;;;;;;7.62;50.74;99158.56;114398;1193;64439;-82
2021/04/22 06:56:03;;;;;;;12.53;3.07;;;;;;;7.47;51.71;99155.00;114388;1192;64397;-82
2021/04/22 06:58:30;;;;;;;13.00;3.57;;;;;;;7.71;51.80;99164.21;114740;1193;64356;-82
2021/04/22 07:00:57;;;;;;;11.67;3.20;;;;;;;7.94;52.11;99156.66;114544;1193;64295;-83
2021/04/22 07:03:23;;;;;;;12.77;3.87;;;;;;;7.83;51.12;99166.15;114493;1193;64347;-83
2021/04/22 07:05:50;;;;;;;15.50;3.60;;;;;;;7.49;51.00;99169.90;114494;1193;64490;-82
2021/04/22 07:08:17;;;;;;;9.07;3.07;;;;;;;7.63;50.94;99171.75;114485;1193;64490;-83
2021/04/22 07:10:44;;;;;;;11.50;3.65;;;;;;;7.71;51.63;99177.50;114467;1192;64451;-82
2021/04/22 07:13:11;;;;;;;12.47;3.27;;;;;;;7.48;51.09;99173.51;114449;1192;64483;-83
2021/04/22 07:15:38;;;;;;;11.73;3.60;;;;;;;7.43;51.90;99177.37;114488;1193;64365;-84
2021/04/22 07:18:11;;;;;;;12.90;3.90;;;;;;;7.78;52.13;99180.66;114456;1193;64474;-84
2021/04/22 07:20:39;;;;;;;12.40;3.37;;;;;;;8.10;51.40;99176.94;114579;1193;64384;-82
2021/04/22 07:23:06;;;;;;;15.27;3.80;;;;;;;8.09;51.18;99179.70;114406;1193;64515;-84
2021/04/22 07:25:35;;;;;;;11.70;3.20;;;;;;;8.04;51.25;99179.11;114479;1193;64397;-83
2021/04/22 07:28:05;;;;;;;12.55;3.30;;;;;;;7.79;51.23;99188.53;114408;1193;64592;-85
2021/04/22 07:30:33;;;;;;;24.75;6.35;;;;;;;7.53;51.72;99181.22;114493;1193;64382;-85
2021/04/22 07:32:59;;;;;;;16.97;3.83;;;;;;;7.40;51.70;99183.73;114403;1193;64430;-83
2021/04/22 07:35:26;;;;;;;11.27;3.40;;;;;;;7.30;50.75;99174.55;114487;1192;64368;-82
2021/04/22 07:37:52;;;;;;;14.70;3.60;;;;;;;7.47;51.37;99187.74;114342;1193;65856;-85
2021/04/22 07:40:22;;;;;;;9.80;3.60;;;;;;;7.65;51.87;99180.52;114679;1193;64429;-85
2021/04/22 07:42:49;;;;;;;14.83;3.40;;;;;;;7.85;52.32;99182.00;114495;1192;64375;-82
2021/04/22 07:45:18;;;;;;;8.65;2.80;;;;;;;8.00;50.40;99183.74;114466;1193;64427;-83
2021/04/22 07:47:46;;;;;;;11.70;3.80;;;;;;;8.12;51.70;99195.46;114451;1193;64573;-84
2021/04/22 07:50:14;;;;;;;18.50;4.40;;;;;;;8.30;51.35;99183.71;114376;1192;64362;-81
2021/04/22 07:52:43;;;;;;;7.83;2.47;;;;;;;8.33;49.99;99180.00;114470;1192;64362;-80
2021/04/22 07:55:17;;;;;;;17.27;5.30;;;;;;;8.18;49.95;99189.77;114383;1193;64381;-81
2021/04/22 07:57:44;;;;;;;43.45;17.20;;;;;;;8.06;50.50;99195.83;114661;1193;64382;-83
2021/04/22 08:00:14;;;;;;;16.90;6.23;;;;;;;8.04;51.30;99195.07;114440;1193;64362;-86
2021/04/22 08:02:42;;;;;;;34.03;12.33;;;;;;;7.91;51.26;99192.28;114533;1193;64419;-86
2021/04/22 08:05:10;;;;;;;68.77;27.07;;;;;;;7.73;51.52;99196.02;114556;1193;64298;-84
2021/04/22 08:07:37;;;;;;;39.20;14.97;;;;;;;7.89;51.83;99193.30;114466;1193;64758;-84
2021/04/22 08:10:36;;;;;;;18.67;6.83;;;;;;;7.98;51.84;99198.09;114410;1193;64292;-83
2021/04/22 08:13:04;;;;;;;18.20;7.03;;;;;;;7.93;51.25;99198.36;114625;1193;64484;-82
2021/04/22 08:15:33;;;;;;;17.97;5.67;;;;;;;7.97;50.64;99183.94;114590;1192;64442;-82
2021/04/22 08:18:02;;;;;;;11.40;4.40;;;;;;;8.08;51.22;99192.14;114709;1192;64295;-83
2021/04/22 08:20:30;;;;;;;37.37;10.50;;;;;;;8.04;50.73;99193.27;114446;1193;64487;-83
2021/04/22 08:23:00;;;;;;;12.20;4.10;;;;;;;8.36;51.28;99183.38;114602;1193;64356;-85
2021/04/22 08:25:33;;;;;;;17.77;4.53;;;;;;;8.47;51.43;99188.05;114531;1193;64446;-85
2021/04/22 08:28:00;;;;;;;13.80;3.97;;;;;;;8.34;51.59;99195.89;114625;1193;64436;-84
2021/04/22 08:30:34;;;;;;;16.37;3.80;;;;;;;8.29;51.13;99191.80;114566;1192;64292;-85
2021/04/22 08:33:03;;;;;;;10.93;3.13;;;;;;;8.45;49.89;99187.27;114585;1193;64263;-81
2021/04/22 08:35:29;;;;;;;10.83;3.87;;;;;;;8.24;49.96;99184.08;114409;1193;64451;-81
2021/04/22 08:37:57;;;;;;;14.57;4.50;;;;;;;8.01;50.20;99187.25;114585;1193;64366;-83
2021/04/22 08:40:25;;;;;;;13.30;4.15;;;;;;;8.13;51.21;99187.38;114472;1193;64548;-82
2021/04/22 08:42:52;;;;;;;13.10;4.20;;;;;;;8.37;51.00;99189.55;114473;1193;64716;-84
2021/04/22 08:45:20;;;;;;;12.57;4.20;;;;;;;8.50;50.89;99177.20;114392;1192;64308;-81
2021/04/22 08:47:48;;;;;;;14.73;4.00;;;;;;;8.54;50.23;99194.70;114456;1193;64394;-83
2021/04/22 08:50:18;;;;;;;10.40;3.80;;;;;;;8.63;50.31;99196.78;114434;1193;64467;-85
2021/04/22 08:52:48;;;;;;;14.90;4.80;;;;;;;8.84;50.19;99196.39;114557;1193;64298;-82
2021/04/22 08:55:16;;;;;;;16.17;4.20;;;;;;;8.68;49.75;99199.17;114550;1193;64449;-82
2021/04/22 08:57:43;;;;;;;11.90;4.33;;;;;;;8.79;49.92;99191.38;114694;1193;64340;-82
2021/04/22 09:00:14;;;;;;;14.43;4.17;;;;;;;9.14;50.41;99206.92;114527;1193;64359;-84
2021/04/22 09:02:41;;;;;;;11.70;3.40;;;;;;;9.42;48.20;99193.55;114541;1193;64382;-80
2021/04/22 09:05:14;;;;;;;25.23;3.90;;;;;;;9.58;50.45;99195.20;114352;1193;64292;-84
2021/04/22 09:07:42;;;;;;;14.87;4.03;;;;;;;9.72;49.92;99192.47;114540;1193;64382;-82
2021/04/22 09:10:18;;;;;;;11.40;3.37;;;;;;;9.88;49.53;99187.84;114721;1192;64429;-81
2021/04/22 09:13:07;;;;;;;9.70;2.95;;;;;;;10.10;49.70;99186.38;114534;1193;64330;-82
2021/04/22 09:15:36;;;;;;;17.05;4.20;;;;;;;10.12;49.30;99195.16;114548;1193;64449;-83
2021/04/22 09:18:09;;;;;;;9.07;3.50;;;;;;;9.92;49.57;99189.32;114599;1193;64391;-81
2021/04/22 09:20:40;;;;;;;14.20;4.10;;;;;;;9.98;50.27;99180.91;114434;1193;64483;-83
2021/04/22 09:23:21;;;;;;;11.00;3.35;;;;;;;9.84;48.99;99180.98;114349;1193;64394;-86
2021/04/22 09:26:02;;;;;;;12.40;3.93;;;;;;;9.65;48.88;99192.02;114601;1193;64394;-81
2021/04/22 09:28:33;;;;;;;13.30;3.57;;;;;;;9.69;49.00;99187.36;114589;1193;64867;-81
2021/04/22 09:31:00;;;;;;;12.43;3.30;;;;;;;9.63;48.90;99185.09;114467;1193;64327;-83
2021/04/22 09:33:30;;;;;;;12.90;3.73;;;;;;;9.67;49.13;99176.80;114487;1193;64330;-80
2021/04/22 09:36:15;;;;;;;15.20;3.85;;;;;;;9.79;50.08;99172.43;114537;1193;64446;-80
2021/04/22 09:38:56;;;;;;;12.93;3.20;;;;;;;10.05;48.57;99167.15;114520;1193;64337;-81
2021/04/22 09:41:26;;;;;;;9.93;3.43;;;;;;;10.02;48.55;99182.42;114664;1193;64393;-82
2021/04/22 09:44:11;;;;;;;9.63;3.20;;;;;;;10.14;49.70;99179.88;114448;1193;64327;-80
2021/04/22 09:46:42;;;;;;;7.58;3.05;;;;;;;10.27;47.90;99180.78;114443;1193;64379;-85
2021/04/22 09:49:14;;;;;;;12.85;3.20;;;;;;;10.17;48.50;99184.99;114287;1193;64378;-81
2021/04/22 09:51:44;;;;;;;12.40;3.25;;;;;;;10.09;47.36;99172.18;114339;1193;64254;-84
2021/04/22 09:54:19;;;;;;;9.17;3.00;;;;;;;10.07;47.42;99181.27;114394;1193;64365;-82
2021/04/22 09:56:55;;;;;;;14.00;3.73;;;;;;;10.06;48.56;99184.89;114768;1193;64407;-82
2021/04/22 09:59:28;;;;;;;12.77;3.17;;;;;;;10.20;47.43;99164.30;114705;1193;64375;-81
2021/04/22 10:02:05;;;;;;;10.65;3.40;;;;;;;10.18;48.13;99168.02;114234;1193;64343;-81
2021/04/22 10:04:41;;;;;;;10.65;3.70;;;;;;;10.16;48.35;99162.80;114302;1193;64404;-83
2021/04/22 10:07:29;;;;;;;12.53;4.07;;;;;;;10.19;48.60;99164.41;114422;1193;64362;-84
2021/04/22 10:10:12;;;;;;;14.85;4.50;;;;;;;10.44;49.31;99159.12;114511;1193;64481;-85
2021/04/22 10:12:40;;;;;;;12.60;3.97;;;;;;;10.61;47.79;99163.25;114357;1193;64410;-85
2021/04/22 10:15:21;;;;;;;14.15;3.60;;;;;;;10.42;46.46;99161.02;114229;1193;64513;-86
2021/04/22 10:17:55;;;;;;;11.05;3.80;;;;;;;10.35;47.31;99170.42;114607;1192;64426;-80
2021/04/22 10:20:24;;;;;;;12.50;3.95;;;;;;;10.48;46.82;99165.08;114544;1192;64455;-81
2021/04/22 10:22:54;;;;;;;10.30;3.53;;;;;;;10.57;47.72;99158.27;114460;1193;64366;-85
2021/04/22 10:25:27;;;;;;;12.30;3.93;;;;;;;10.52;45.54;99155.91;114407;1193;64417;-81
2021/04/22 10:28:00;;;;;;;17.00;3.80;;;;;;;10.45;48.11;99155.48;114497;1193;64474;-83
2021/04/22 10:30:28;;;;;;;15.47;4.07;;;;;;;10.65;47.63;99162.09;114545;1193;64848;-83
2021/04/22 10:32:55;;;;;;;14.83;3.90;;;;;;;10.82;48.32;99152.89;114420;1193;64356;-83
2021/04/22 10:35:24;;;;;;;12.57;3.50;;;;;;;11.19;47.97;99160.89;114502;1193;64407;-83
2021/04/22 10:37:53;;;;;;;14.15;4.00;;;;;;;11.06;46.62;99160.93;114631;1193;64522;-79
2021/04/22 10:40:25;;;;;;;15.07;3.80;;;;;;;11.12;46.49;99159.64;114406;1193;64561;-81
2021/04/22 10:42:57;;;;;;;11.40;4.47;;;;;;;11.17;47.33;99152.14;114639;1193;64375;-81
2021/04/22 10:45:26;;;;;;;9.53;3.47;;;;;;;11.34;47.46;99163.31;114459;1193;64391;-84
2021/04/22 10:47:55;;;;;;;10.93;4.57;;;;;;;11.59;48.39;99151.66;114496;1193;64471;-84
2021/04/22 10:50:29;;;;;;;10.23;3.80;;;;;;;11.66;46.11;99156.55;114459;1192;64397;-81
2021/04/22 10:52:58;;;;;;;11.20;3.23;;;;;;;11.17;45.50;99166.36;114420;1193;64493;-82
2021/04/22 10:55:28;;;;;;;14.30;3.60;;;;;;;10.82;46.10;99152.89;114417;1193;64365;-83
2021/04/22 10:57:58;;;;;;;13.90;4.03;;;;;;;10.88;47.45;99163.13;114347;1193;64487;-82
2021/04/22 11:00:30;;;;;;;13.77;3.97;;;;;;;10.85;47.09;99158.00;114748;1193;64259;-84
2021/04/22 11:02:59;;;;;;;18.17;4.07;;;;;;;10.98;45.39;99163.31;114403;1193;64343;-85
2021/04/22 11:05:30;;;;;;;12.20;3.57;;;;;;;10.95;46.10;99169.74;114466;1193;64557;-82
2021/04/22 11:08:07;;;;;;;7.70;3.33;;;;;;;11.00;45.60;99178.26;114505;1193;64452;-80
2021/04/22 11:10:46;;;;;;;10.87;3.53;;;;;;;10.95;46.98;99166.22;114461;1193;64455;-82
2021/04/22 11:13:26;;;;;;;11.90;5.03;;;;;;;11.19;46.64;99166.23;114471;1193;64353;-83
2021/04/22 11:15:53;;;;;;;11.27;4.03;;;;;;;11.18;45.40;99184.09;114308;1193;64314;-82
2021/04/22 11:18:32;;;;;;;11.30;4.10;;;;;;;11.07;45.81;99168.86;114495;1193;64523;-83
2021/04/22 11:20:59;;;;;;;6.90;3.15;;;;;;;11.13;45.55;99182.72;114427;1193;64426;-80
2021/04/22 11:23:27;;;;;;;10.20;4.70;;;;;;;10.83;46.27;99173.29;114421;1193;64365;-80
2021/04/22 11:25:56;;;;;;;25.27;5.87;;;;;;;11.10;46.49;99173.12;114623;1192;64423;-81
2021/04/22 11:28:34;;;;;;;9.05;3.40;;;;;;;11.23;46.58;99175.75;114437;1193;64368;-83
2021/04/22 11:31:08;;;;;;;10.73;3.77;;;;;;;11.69;45.80;99175.03;114391;1193;64548;-78